Time;durP1;ratioP1;P1;durP2;ratioP2;P2;SDS_P1;SDS_P2;PMS_P1;PMS_P2;Temp;Humidity;BMP_temperature;BMP_pressure;BME280_temperature;BME280_humidity;BME280_pressure;Samples;Min_cycle;Max_cycle;Signal;HPM_P1;HPM_P2
2021/03/11 00:00:50;;;;;;;37.60;21.57;;;;;;;-3.65;56.06;101307.33;1634858;86;21088;-82
2021/03/11 00:03:26;;;;;;;31.73;20.60;;;;;;;-3.57;55.92;101309.56;1624345;87;21207;-82
2021/03/11 00:05:54;;;;;;;36.33;21.67;;;;;;;-3.53;55.88;101310.63;1622088;87;21227;-83
2021/03/11 00:08:21;;;;;;;30.53;19.30;;;;;;;-3.52;56.19;101316.72;1635903;86;21199;-83
2021/03/11 00:10:48;;;;;;;29.00;18.87;;;;;;;-3.49;56.32;101314.41;1611387;87;21260;-83
2021/03/11 00:13:15;;;;;;;30.63;18.17;;;;;;;-3.52;56.44;101310.20;1696811;83;21184;-83
2021/03/11 00:15:44;;;;;;;31.23;18.97;;;;;;;-3.52;56.61;101316.72;1695607;83;21989;-81
2021/03/11 00:18:13;;;;;;;31.67;18.73;;;;;;;-3.57;56.67;101305.19;1683119;83;21601;-82
2021/03/11 00:20:41;;;;;;;28.83;20.20;;;;;;;-3.58;56.70;101305.25;1698549;83;21638;-82
2021/03/11 00:23:08;;;;;;;33.63;20.27;;;;;;;-3.52;56.67;101308.89;1687443;83;21189;-81
2021/03/11 00:25:37;;;;;;;28.50;17.67;;;;;;;-3.49;56.67;101309.19;1666218;85;21199;-82
2021/03/11 00:28:05;;;;;;;32.83;20.73;;;;;;;-3.48;56.67;101306.52;1649328;86;21327;-83
2021/03/11 00:30:33;;;;;;;33.37;18.73;;;;;;;-3.45;56.56;101303.74;1625282;87;21749;-82
2021/03/11 00:33:01;;;;;;;29.97;19.03;;;;;;;-3.45;56.42;101300.30;1665907;85;21748;-82
2021/03/11 00:35:29;;;;;;;28.87;19.07;;;;;;;-3.41;56.15;101298.79;1664090;85;21162;-83
2021/03/11 00:37:56;;;;;;;33.70;19.63;;;;;;;-3.42;56.16;101298.39;1677776;84;21144;-82
2021/03/11 00:40:24;;;;;;;32.50;20.43;;;;;;;-3.43;56.11;101294.55;1656683;85;21215;-80
2021/03/11 00:42:52;;;;;;;35.33;20.33;;;;;;;-3.44;56.12;101297.63;1659861;85;21176;-83
2021/03/11 00:45:19;;;;;;;32.60;21.27;;;;;;;-3.46;56.12;101298.63;1673811;85;21045;-82
2021/03/11 00:47:47;;;;;;;41.53;24.50;;;;;;;-3.46;56.13;101298.63;1676465;85;21188;-81
2021/03/11 00:50:22;;;;;;;38.63;23.07;;;;;;;-3.47;56.12;101299.06;1686355;85;21198;-82
2021/03/11 00:52:49;;;;;;;47.30;24.77;;;;;;;-3.44;56.07;101295.48;1679097;85;21203;-81
2021/03/11 00:55:19;;;;;;;37.67;23.80;;;;;;;-3.40;55.97;101297.02;1663949;85;21363;-79
2021/03/11 00:57:48;;;;;;;38.33;24.17;;;;;;;-3.42;55.97;101291.04;1685002;82;21209;-79
2021/03/11 01:00:21;;;;;;;41.17;24.87;;;;;;;-3.45;55.98;101289.88;1682708;84;21672;-81
2021/03/11 01:03:03;;;;;;;39.53;23.70;;;;;;;-3.42;56.06;101277.53;1834052;77;23116;-80
2021/03/11 01:05:34;;;;;;;46.73;27.70;;;;;;;-3.49;56.13;101274.84;1779706;77;21203;-80
2021/03/11 01:08:03;;;;;;;45.67;26.40;;;;;;;-3.49;56.13;101280.05;1820752;78;21201;-79
2021/03/11 01:10:30;;;;;;;49.33;28.13;;;;;;;-3.49;56.34;101277.91;1823650;77;21238;-82
2021/03/11 01:12:57;;;;;;;47.67;28.27;;;;;;;-3.50;56.49;101277.52;1726517;78;21105;-83
2021/03/11 01:15:26;;;;;;;;;;;;;;;-3.58;56.79;101277.89;1697757;83;21182;-82
2021/03/11 01:17:54;;;;;;;51.37;30.67;;;;;;;-3.63;57.01;101270.31;1691881;84;20246;-79
2021/03/11 01:20:22;;;;;;;49.90;28.00;;;;;;;-3.69;57.22;101271.05;1699593;83;21224;-81
2021/03/11 01:22:49;;;;;;;51.63;29.20;;;;;;;-3.72;57.52;101270.28;1679226;83;21129;-81
2021/03/11 01:25:16;;;;;;;;;;;;;;;-3.74;57.72;101269.52;1669542;83;21536;-80
2021/03/11 01:27:42;;;;;;;54.63;28.70;;;;;;;-3.82;58.04;101275.56;1671480;84;20223;-81
2021/03/11 01:30:13;;;;;;;54.90;29.20;;;;;;;-3.93;58.47;101270.84;1668899;84;21217;-83
2021/03/11 01:32:40;;;;;;;59.40;32.53;;;;;;;-4.01;58.56;101270.38;1691825;83;21387;-80
2021/03/11 01:35:08;;;;;;;58.90;32.63;;;;;;;-4.81;58.60;101137.40;1694392;83;21122;-81
2021/03/11 01:37:35;;;;;;;66.17;33.47;;;;;;;-4.00;58.58;101272.05;1686198;83;21218;-81
2021/03/11 01:40:04;;;;;;;;;;;;;;;-3.95;58.66;101267.47;1671991;85;21367;-81
2021/03/11 01:42:32;;;;;;;59.47;30.30;;;;;;;-3.98;58.60;101270.67;1686031;83;20235;-80
2021/03/11 01:44:59;;;;;;;60.90;30.33;;;;;;;-4.50;58.61;101194.55;1646382;85;21124;-83
2021/03/11 01:47:27;;;;;;;54.10;28.53;;;;;;;-4.06;58.71;101272.80;1628574;87;21651;-84
2021/03/11 01:49:54;;;;;;;51.10;28.23;;;;;;;-4.06;58.68;101280.62;1641555;86;21741;-84
2021/03/11 01:52:23;;;;;;;47.83;26.77;;;;;;;-4.04;58.61;101283.53;1622535;86;21389;-82
2021/03/11 01:54:51;;;;;;;46.47;27.17;;;;;;;-4.07;58.58;101281.05;1639834;86;21218;-82
2021/03/11 01:57:18;;;;;;;45.27;27.10;;;;;;;-4.04;58.58;101275.72;1654919;84;21602;-82
2021/03/11 01:59:47;;;;;;;47.57;26.60;;;;;;;-4.07;58.67;101271.10;1683140;83;21469;-83
2021/03/11 02:02:17;;;;;;;45.23;26.13;;;;;;;-4.11;58.75;101277.77;1752823;81;21219;-83
2021/03/11 02:04:44;;;;;;;42.00;24.60;;;;;;;-4.07;58.77;101282.35;1739667;81;22357;-81
2021/03/11 02:07:14;;;;;;;43.40;24.63;;;;;;;-4.15;58.90;101285.31;1747764;81;22421;-82
2021/03/11 02:09:42;;;;;;;42.80;24.53;;;;;;;-4.18;58.97;101276.36;1695007;83;21308;-81
2021/03/11 02:12:43;;;;;;;42.47;26.70;;;;;;;-4.23;59.20;101279.62;1722293;81;21486;-82
2021/03/11 02:15:34;;;;;;;42.23;26.00;;;;;;;-4.18;59.35;101275.50;1772353;79;22655;-83
2021/03/11 02:18:34;;;;;;;44.73;25.53;;;;;;;-4.28;59.51;101294.60;1746217;80;21140;-83
2021/03/11 02:21:27;;;;;;;44.67;24.47;;;;;;;-4.31;59.59;101295.59;1747047;81;21190;-82
2021/03/11 02:24:37;;;;;;;41.13;23.60;;;;;;;-4.36;59.80;101296.72;1715498;82;21084;-80
2021/03/11 02:27:45;;;;;;;39.33;23.77;;;;;;;-4.38;59.89;101295.94;1705596;82;21839;-81
2021/03/11 02:30:12;;;;;;;45.27;26.93;;;;;;;-4.43;59.96;101295.30;1702257;82;21248;-82
2021/03/11 02:32:43;;;;;;;43.17;23.27;;;;;;;-4.48;60.09;101302.02;1705983;82;21665;-82
2021/03/11 02:35:12;;;;;;;44.23;25.67;;;;;;;-4.47;60.29;101300.25;1679500;83;21175;-81
2021/03/11 02:37:44;;;;;;;36.50;21.73;;;;;;;-4.56;60.30;101302.36;1665666;84;21210;-82
2021/03/11 02:40:23;;;;;;;40.10;24.03;;;;;;;-4.63;60.68;101303.97;1679593;84;21200;-82
2021/03/11 02:42:53;;;;;;;41.53;26.53;;;;;;;-4.71;61.12;101306.91;1684906;84;21834;-82
2021/03/11 02:45:25;;;;;;;41.23;23.67;;;;;;;-4.80;61.40;101312.07;1668379;83;21284;-83
2021/03/11 02:47:55;;;;;;;37.07;24.03;;;;;;;-4.87;61.89;101304.59;1660658;85;21221;-79
2021/03/11 02:50:23;;;;;;;43.63;25.93;;;;;;;-4.93;62.17;101305.70;1641418;85;21732;-81
2021/03/11 02:52:51;;;;;;;48.30;29.03;;;;;;;-5.02;62.17;101312.13;1652733;85;22315;-82
2021/03/11 02:55:22;;;;;;;47.80;28.27;;;;;;;-4.99;62.23;101300.73;1657103;83;21202;-80
2021/03/11 02:57:55;;;;;;;45.97;26.40;;;;;;;-4.97;62.37;101301.52;1691292;83;21384;-81
2021/03/11 03:00:24;;;;;;;44.87;27.73;;;;;;;-4.91;62.27;101298.22;1698299;83;21135;-82
2021/03/11 03:02:54;;;;;;;48.70;25.97;;;;;;;-4.88;62.19;101297.23;1682359;83;21150;-80
2021/03/11 03:05:25;;;;;;;43.57;25.10;;;;;;;-4.89;62.18;101298.99;1681798;85;21157;-82
2021/03/11 03:07:54;;;;;;;49.23;27.77;;;;;;;-4.82;62.08;101302.63;1689912;85;21344;-83
2021/03/11 03:10:29;;;;;;;47.60;27.10;;;;;;;-4.83;62.07;101304.84;1689955;83;21182;-82
2021/03/11 03:13:00;;;;;;;54.20;29.97;;;;;;;-4.87;62.01;101307.20;1671852;83;21118;-83
2021/03/11 03:15:27;;;;;;;47.67;28.53;;;;;;;-4.90;61.98;101290.81;1689702;83;21177;-85
2021/03/11 03:17:55;;;;;;;44.63;27.10;;;;;;;-4.89;62.12;101297.69;1667382;85;21363;-83
2021/03/11 03:20:25;;;;;;;39.37;24.67;;;;;;;-4.89;62.11;101292.48;1688358;84;21233;-82
2021/03/11 03:22:53;;;;;;;36.53;21.47;;;;;;;-4.95;62.38;101296.66;1651138;85;21123;-84
2021/03/11 03:25:22;;;;;;;44.77;23.93;;;;;;;-5.07;62.71;101295.02;1637862;86;21330;-82
2021/03/11 03:27:48;;;;;;;;;;;;;;;-5.18;62.97;101305.43;1630168;87;21227;-82
2021/03/11 03:30:18;;;;;;;41.68;23.10;;;;;;;-5.20;62.97;101305.92;1636168;87;20212;-82
2021/03/11 03:32:46;;;;;;;38.93;23.30;;;;;;;-5.21;62.95;101300.81;1628562;86;21231;-84
2021/03/11 03:35:15;;;;;;;44.70;25.13;;;;;;;-5.18;62.83;101300.66;1657882;85;21167;-83
2021/03/11 03:37:42;;;;;;;63.57;30.67;;;;;;;-5.12;62.73;101297.83;1637306;86;21199;-79
2021/03/11 03:40:12;;;;;;;;;;;;;;;-5.10;62.70;101299.45;1627977;87;21741;-81
2021/03/11 03:42:50;;;;;;;47.60;25.10;;;;;;;-5.05;62.61;101301.84;1619710;87;20540;-82
2021/03/11 03:45:26;;;;;;;48.20;24.47;;;;;;;-4.98;62.38;101299.84;1623338;85;21060;-81
2021/03/11 03:47:57;;;;;;;41.97;23.60;;;;;;;-4.95;62.08;101299.27;1637344;85;21176;-81
2021/03/11 03:50:25;;;;;;;39.20;21.40;;;;;;;-4.92;61.91;101303.47;1650313;86;21166;-82
2021/03/11 03:52:56;;;;;;;47.47;26.80;;;;;;;-4.89;61.80;101301.59;1647109;85;21179;-82
2021/03/11 03:55:26;;;;;;;44.67;26.93;;;;;;;-4.87;61.73;101307.20;1649362;86;21033;-82
2021/03/11 03:57:56;;;;;;;71.70;36.20;;;;;;;-4.85;61.67;101302.77;1587734;87;21260;-82
2021/03/11 04:00:25;;;;;;;67.80;34.77;;;;;;;-4.83;61.58;101304.84;1627100;87;21076;-82
2021/03/11 04:02:55;;;;;;;69.30;35.07;;;;;;;-4.85;61.67;101304.07;1617863;87;21190;-83
2021/03/11 04:05:23;;;;;;;60.73;31.70;;;;;;;-4.90;61.76;101306.42;1598777;88;21704;-83
2021/03/11 04:07:53;;;;;;;61.70;31.10;;;;;;;-4.92;61.83;101299.57;1621260;88;21232;-82
2021/03/11 04:10:20;;;;;;;57.13;31.60;;;;;;;-4.97;61.98;101303.69;1620180;87;21227;-83
2021/03/11 04:12:49;;;;;;;50.47;29.47;;;;;;;-5.02;62.11;101300.42;1621202;88;21153;-83
2021/03/11 04:15:20;;;;;;;58.40;30.77;;;;;;;-5.00;62.23;101304.27;1617139;87;21249;-82
2021/03/11 04:17:51;;;;;;;60.83;31.30;;;;;;;-4.97;62.34;101310.19;1608562;87;21234;-82
2021/03/11 04:20:23;;;;;;;57.90;31.30;;;;;;;-4.90;62.22;101310.32;1602524;87;21202;-85
2021/03/11 04:22:56;;;;;;;64.67;33.30;;;;;;;-6.75;62.00;100996.84;1622651;87;21047;-82
2021/03/11 04:25:24;;;;;;;60.13;31.27;;;;;;;-4.79;61.98;101322.84;1691916;83;21201;-81
2021/03/11 04:27:52;;;;;;;60.30;35.40;;;;;;;-4.74;61.78;101318.77;1703433;83;21209;-83
2021/03/11 04:30:20;;;;;;;58.50;32.93;;;;;;;-4.74;61.77;101314.86;1687317;83;21300;-82
2021/03/11 04:32:49;;;;;;;54.40;29.80;;;;;;;-4.78;61.88;101313.31;1705606;83;21214;-82
2021/03/11 04:35:17;;;;;;;59.93;33.97;;;;;;;-4.77;61.82;101316.28;1670983;85;21110;-82
2021/03/11 04:37:45;;;;;;;54.83;32.90;;;;;;;-4.77;61.81;101311.92;1665774;85;21162;-82
2021/03/11 04:40:13;;;;;;;59.00;32.53;;;;;;;-4.72;61.60;101309.97;1648913;86;21210;-81
2021/03/11 04:42:40;;;;;;;56.43;33.70;;;;;;;-4.54;61.46;101324.39;1665564;85;21230;-82
2021/03/11 04:45:09;;;;;;;58.67;33.03;;;;;;;-4.23;61.21;101310.87;1661989;85;21095;-82
2021/03/11 04:47:38;;;;;;;63.83;34.90;;;;;;;-5.63;60.41;100999.02;1645905;86;21910;-83
2021/03/11 04:50:07;;;;;;;64.23;34.53;;;;;;;-3.16;59.70;101308.02;1648512;86;21241;-81
2021/03/11 04:52:36;;;;;;;55.33;32.60;;;;;;;-2.56;58.30;101307.59;1655163;85;21174;-83
2021/03/11 04:55:05;;;;;;;58.50;35.17;;;;;;;-2.01;56.90;101309.03;1654964;85;21404;-83
2021/03/11 04:57:32;;;;;;;69.10;39.10;;;;;;;-1.48;55.70;101309.13;1645578;86;21741;-83
2021/03/11 05:00:01;;;;;;;59.53;33.40;;;;;;;-1.00;54.33;101311.17;1642582;86;21223;-83
2021/03/11 05:02:34;;;;;;;63.87;34.73;;;;;;;-0.40;52.72;101315.91;1654413;86;21250;-83
2021/03/11 05:05:08;;;;;;;62.77;37.43;;;;;;;0.07;50.89;101312.59;1653951;86;21798;-83
2021/03/11 05:07:35;;;;;;;59.40;33.87;;;;;;;0.48;49.45;101319.14;1653895;86;21858;-83
2021/03/11 05:10:05;;;;;;;61.40;36.33;;;;;;;0.79;48.10;101315.82;1647550;86;21201;-81
2021/03/11 05:12:31;;;;;;;57.97;34.70;;;;;;;1.03;47.42;101315.98;1672129;85;21186;-82
2021/03/11 05:14:59;;;;;;;60.73;35.57;;;;;;;1.34;46.53;101318.70;1688459;84;21250;-82
2021/03/11 05:17:26;;;;;;;62.70;37.57;;;;;;;1.58;45.82;101323.20;1679136;84;21200;-84
2021/03/11 05:19:53;;;;;;;63.43;39.30;;;;;;;1.83;45.03;101318.42;1677308;84;21243;-82
2021/03/11 05:22:20;;;;;;;;;;;;;;;1.97;44.38;101292.95;1679170;84;21757;-81
2021/03/11 05:24:50;;;;;;;68.95;37.88;;;;;;;2.39;43.36;101317.94;1647582;85;20187;-82
2021/03/11 05:27:19;;;;;;;59.63;39.23;;;;;;;2.56;42.97;101323.29;1660767;85;21210;-82
2021/03/11 05:29:47;;;;;;;55.60;35.83;;;;;;;2.73;41.87;101318.97;1670920;85;21214;-83
2021/03/11 05:32:15;;;;;;;62.93;37.97;;;;;;;2.82;41.79;101320.05;1659033;84;21174;-84
2021/03/11 05:34:46;;;;;;;56.63;37.80;;;;;;;2.93;41.56;101320.09;1664834;85;21750;-82
2021/03/11 05:37:14;;;;;;;59.07;36.27;;;;;;;3.10;41.29;101331.17;1663200;85;21735;-84
2021/03/11 05:42:26;;;;;;;61.47;36.57;;;;;;;3.37;39.62;101332.67;1758685;79;22562;-83
2021/03/11 05:44:53;;;;;;;49.57;30.27;;;;;;;3.08;39.03;101337.03;1731793;81;21064;-83
2021/03/11 05:47:21;;;;;;;53.70;34.50;;;;;;;2.92;39.60;101336.04;1704089;82;21194;-83
2021/03/11 05:49:51;;;;;;;54.93;33.83;;;;;;;2.85;39.78;101338.27;1713642;83;21191;-82
2021/03/11 05:52:18;;;;;;;52.03;33.87;;;;;;;2.97;39.76;101331.73;1717838;82;21337;-82
2021/03/11 05:54:48;;;;;;;48.70;34.70;;;;;;;3.25;38.86;101341.03;1690082;83;21305;-83
2021/03/11 05:57:17;;;;;;;56.70;36.73;;;;;;;3.55;38.13;101337.02;1713928;83;21087;-82
2021/03/11 05:59:49;;;;;;;63.80;37.37;;;;;;;3.86;37.91;101334.14;1712231;82;21183;-87
2021/03/11 06:02:25;;;;;;;55.57;37.30;;;;;;;4.08;36.59;101338.09;1701040;83;21159;-84
2021/03/11 06:04:54;;;;;;;51.80;32.90;;;;;;;3.99;35.92;101339.30;1686010;84;21235;-86
2021/03/11 06:07:25;;;;;;;46.20;27.90;;;;;;;3.82;36.29;101340.62;1685376;83;21344;-84
2021/03/11 06:09:56;;;;;;;46.00;30.53;;;;;;;3.52;35.81;101339.40;1685876;84;21190;-84
2021/03/11 06:12:24;;;;;;;50.40;30.50;;;;;;;2.92;36.17;101350.04;1665243;84;21703;-83
2021/03/11 06:15:11;;;;;;;57.00;31.67;;;;;;;2.90;37.41;101351.95;1689344;83;21195;-84
2021/03/11 06:17:54;;;;;;;63.80;32.50;;;;;;;3.24;36.90;101356.47;1634140;86;21210;-83
2021/03/11 06:20:23;;;;;;;49.30;28.90;;;;;;;3.58;36.24;101350.81;1664481;85;21801;-83
2021/03/11 06:22:50;;;;;;;58.87;33.17;;;;;;;3.75;34.88;101353.92;1657721;85;21111;-85
2021/03/11 06:25:19;;;;;;;60.53;33.27;;;;;;;3.81;35.93;101352.16;1658368;85;21660;-84
2021/03/11 06:27:50;;;;;;;55.30;31.00;;;;;;;4.31;34.56;101345.97;1636166;86;21227;-85
2021/03/11 06:30:37;;;;;;;61.20;32.23;;;;;;;4.63;34.07;101348.69;1656052;85;21214;-83
2021/03/11 06:33:07;;;;;;;42.37;26.47;;;;;;;4.92;33.29;101352.55;1656184;83;21170;-83
2021/03/11 06:35:37;;;;;;;45.60;30.57;;;;;;;5.07;32.25;101361.84;1660151;85;21313;-84
2021/03/11 06:38:12;;;;;;;51.57;30.47;;;;;;;4.85;32.92;101357.48;1659554;86;21191;-83
2021/03/11 06:40:40;;;;;;;52.30;31.97;;;;;;;4.33;33.74;101361.70;1654712;85;21191;-83
2021/03/11 06:43:13;;;;;;;47.60;30.00;;;;;;;3.63;34.72;101372.37;1644555;86;21313;-81
2021/03/11 06:45:40;;;;;;;38.60;25.87;;;;;;;2.92;35.85;101371.59;1619188;87;21102;-82
2021/03/11 06:48:26;;;;;;;31.03;18.80;;;;;;;2.34;36.80;101367.45;1653324;85;21198;-83
2021/03/11 06:50:56;;;;;;;35.50;19.60;;;;;;;1.64;37.14;101366.17;1660575;86;22345;-82
2021/03/11 06:53:23;;;;;;;31.47;18.67;;;;;;;0.90;38.24;101359.27;1659055;86;21195;-82
2021/03/11 06:56:22;;;;;;;32.43;18.67;;;;;;;0.40;39.66;101363.39;1650966;85;21683;-83
2021/03/11 06:59:05;;;;;;;33.47;17.93;;;;;;;0.04;40.83;101376.56;1653206;85;21290;-82
2021/03/11 07:01:52;;;;;;;40.10;20.77;;;;;;;-0.22;41.33;101376.36;1640311;85;21128;-83
2021/03/11 07:04:24;;;;;;;22.17;14.53;;;;;;;-0.24;41.53;101378.23;1629210;87;21211;-81
2021/03/11 07:06:54;;;;;;;25.50;14.67;;;;;;;-0.23;41.73;101370.77;1629241;87;21160;-82
2021/03/11 07:09:27;;;;;;;20.20;12.37;;;;;;;-0.20;40.76;101381.03;1599151;88;21744;-83
2021/03/11 07:11:55;;;;;;;20.33;12.57;;;;;;;-0.38;41.28;101387.38;1633385;85;21132;-82
2021/03/11 07:14:28;;;;;;;15.70;9.47;;;;;;;-0.49;41.24;101386.73;1618129;87;21645;-82
2021/03/11 07:16:59;;;;;;;23.27;13.37;;;;;;;-0.55;41.52;101377.07;1624809;87;21345;-82
2021/03/11 07:19:26;;;;;;;27.37;13.23;;;;;;;-0.51;41.74;101382.50;1633276;87;21224;-81
2021/03/11 07:21:59;;;;;;;19.67;11.70;;;;;;;-0.56;41.90;101380.64;1620317;87;21439;-81
2021/03/11 07:24:50;;;;;;;21.53;12.47;;;;;;;-0.53;41.84;101377.34;1623495;87;21258;-82
2021/03/11 07:27:19;;;;;;;16.70;11.97;;;;;;;-0.52;41.91;101380.83;1616144;87;21275;-82
2021/03/11 07:30:04;;;;;;;17.73;12.03;;;;;;;-0.48;41.75;101373.99;1615107;87;21179;-84
2021/03/11 07:32:34;;;;;;;24.27;14.83;;;;;;;-0.37;41.83;101377.30;1630577;86;21196;-82
2021/03/11 07:35:03;;;;;;;18.30;11.03;;;;;;;-0.37;41.84;101375.98;1632257;86;21052;-83
2021/03/11 07:37:33;;;;;;;15.97;10.67;;;;;;;-0.47;41.79;101374.83;1656779;85;21622;-83
2021/03/11 07:40:03;;;;;;;21.93;11.80;;;;;;;-0.46;42.00;101372.59;1661571;85;21155;-82
2021/03/11 07:42:30;;;;;;;22.00;12.07;;;;;;;-0.42;41.95;101384.57;1630737;85;21288;-81
2021/03/11 07:44:59;;;;;;;22.67;12.60;;;;;;;-0.33;42.19;101390.58;1633326;86;21102;-83
2021/03/11 07:47:26;;;;;;;21.07;13.23;;;;;;;-0.31;41.85;101378.22;1636206;85;21205;-82
2021/03/11 07:49:54;;;;;;;21.13;12.27;;;;;;;-0.29;41.74;101381.59;1648520;86;22150;-82
2021/03/11 07:52:23;;;;;;;16.27;11.23;;;;;;;-0.28;41.86;101390.31;1645721;85;21363;-81
2021/03/11 07:54:52;;;;;;;18.60;11.43;;;;;;;-0.22;42.00;101386.84;1652063;86;21190;-81
2021/03/11 07:57:21;;;;;;;19.10;12.57;;;;;;;-0.15;41.96;101379.91;1655486;85;21044;-82
2021/03/11 07:59:49;;;;;;;16.47;11.57;;;;;;;-0.48;41.64;101305.89;1653485;85;21352;-84
2021/03/11 08:02:20;;;;;;;13.27;9.57;;;;;;;-0.07;41.47;101381.14;1610606;87;21031;-82
2021/03/11 08:04:48;;;;;;;14.60;9.83;;;;;;;-0.05;41.26;101379.74;1622738;87;21396;-83
2021/03/11 08:07:26;;;;;;;16.77;9.37;;;;;;;-0.07;41.49;101369.82;1607536;87;21198;-82
2021/03/11 08:09:57;;;;;;;12.07;9.33;;;;;;;0.00;41.47;101363.27;1614796;87;21246;-82
2021/03/11 08:12:38;;;;;;;15.70;9.37;;;;;;;0.04;41.14;101366.07;1587012;89;21133;-81
2021/03/11 08:15:17;;;;;;;13.93;10.10;;;;;;;0.05;41.01;101380.84;1609810;89;21222;-82
2021/03/11 08:17:54;;;;;;;12.97;9.97;;;;;;;-0.20;40.77;101372.34;1756313;79;23455;-82
2021/03/11 08:20:37;;;;;;;16.03;10.37;;;;;;;-0.32;41.33;101373.94;1750403;80;21254;-83
2021/03/11 08:23:04;;;;;;;13.73;8.73;;;;;;;-0.29;41.17;101354.08;1730637;80;21133;-83
2021/03/11 08:25:38;;;;;;;16.73;9.43;;;;;;;-0.24;41.78;101353.34;1697538;83;21345;-82
2021/03/11 08:28:18;;;;;;;10.67;8.43;;;;;;;-0.08;41.49;101341.44;1659694;84;21198;-83
2021/03/11 08:30:50;;;;;;;17.47;9.07;;;;;;;0.05;40.68;101344.14;1654436;85;21359;-83
2021/03/11 08:33:27;;;;;;;16.73;10.73;;;;;;;0.07;40.04;101347.98;1647545;85;21224;-83
2021/03/11 08:35:57;;;;;;;12.07;8.50;;;;;;;-0.07;40.34;101343.14;1652413;85;21381;-82
2021/03/11 08:38:38;;;;;;;11.97;8.13;;;;;;;-0.20;40.94;101343.04;1640447;85;21372;-84
2021/03/11 08:41:13;;;;;;;14.23;9.43;;;;;;;-0.15;41.11;101344.09;1641375;85;21421;-83
2021/03/11 08:43:47;;;;;;;13.27;10.20;;;;;;;-0.14;41.35;101346.23;1656218;85;21334;-82
2021/03/11 08:46:24;;;;;;;17.73;10.80;;;;;;;-0.01;40.50;101336.67;1637878;85;21115;-83
2021/03/11 08:48:58;;;;;;;15.20;8.50;;;;;;;0.03;40.77;101327.67;1657113;86;21192;-82
2021/03/11 08:51:32;;;;;;;10.23;8.13;;;;;;;0.21;40.68;101337.94;1643288;85;21333;-83
2021/03/11 08:54:10;;;;;;;22.97;11.20;;;;;;;0.27;40.33;101334.95;1692813;83;21961;-82
2021/03/11 08:56:41;;;;;;;17.25;10.43;;;;;;;0.34;39.86;101336.22;1648671;85;21067;-83
2021/03/11 08:59:17;;;;;;;12.37;8.87;;;;;;;0.39;39.80;101334.98;1642709;85;21628;-83
2021/03/11 09:01:50;;;;;;;12.80;8.17;;;;;;;0.49;39.69;101327.84;1632082;85;21028;-82
2021/03/11 09:04:27;;;;;;;9.57;7.93;;;;;;;0.50;40.04;101317.25;1591340;87;21844;-82
2021/03/11 09:06:59;;;;;;;9.67;7.53;;;;;;;0.63;39.47;101317.78;1613705;86;21312;-82
2021/03/11 09:09:46;;;;;;;16.47;9.77;;;;;;;0.61;39.63;101319.67;1620237;87;21187;-82
2021/03/11 09:12:37;;;;;;;19.12;9.70;;;;;;;0.55;39.79;101340.59;1645314;84;21017;-82
2021/03/11 09:15:10;;;;;;;12.40;7.63;;;;;;;0.43;39.79;101326.93;1663291;84;21435;-81
2021/03/11 09:17:39;;;;;;;11.53;7.50;;;;;;;0.32;40.06;101338.09;1640645;85;21172;-82
2021/03/11 09:20:14;;;;;;;10.53;6.90;;;;;;;0.28;40.05;101332.20;1650513;85;21194;-83
2021/03/11 09:22:48;;;;;;;8.53;6.03;;;;;;;0.34;40.34;101330.97;1673768;84;21052;-83
2021/03/11 09:25:24;;;;;;;9.60;7.07;;;;;;;0.33;39.51;101335.86;1640094;85;21207;-82
2021/03/11 09:28:01;;;;;;;12.10;7.20;;;;;;;0.43;38.91;101328.24;1669812;84;21400;-82
2021/03/11 09:30:36;;;;;;;13.20;9.30;;;;;;;0.33;39.33;101329.30;1637717;85;21237;-82
2021/03/11 09:33:13;;;;;;;10.10;7.97;;;;;;;0.09;39.60;101327.28;1676734;84;21202;-82
2021/03/11 09:35:42;;;;;;;12.33;8.17;;;;;;;-0.01;40.18;101335.36;1644276;85;21831;-82
2021/03/11 09:38:12;;;;;;;8.53;7.60;;;;;;;0.01;40.11;101321.69;1677027;84;21190;-81
2021/03/11 09:40:45;;;;;;;11.03;8.20;;;;;;;0.13;40.04;101314.83;1643344;85;21160;-82
2021/03/11 09:43:18;;;;;;;9.33;7.53;;;;;;;0.19;40.25;101310.05;1677486;84;21191;-83
2021/03/11 09:46:01;;;;;;;7.90;6.13;;;;;;;0.26;39.29;101324.91;1669805;84;21145;-83
2021/03/11 09:48:34;;;;;;;14.70;8.77;;;;;;;0.33;39.67;101317.02;1667523;84;21324;-83
2021/03/11 09:51:13;;;;;;;8.40;7.30;;;;;;;0.46;39.58;101317.56;1662855;84;21279;-83
2021/03/11 09:53:45;;;;;;;11.87;7.33;;;;;;;0.61;39.55;101309.17;1670211;84;21222;-83
2021/03/11 09:57:39;;;;;;;10.93;6.37;;;;;;;0.81;38.70;101317.90;1801278;77;23114;-83
2021/03/11 10:00:08;;;;;;;5.87;4.87;;;;;;;0.80;37.81;101310.95;1758939;79;21176;-82
2021/03/11 10:02:49;;;;;;;6.77;5.20;;;;;;;0.85;37.86;101311.95;1772423;79;21359;-82
2021/03/11 10:05:20;;;;;;;6.73;4.43;;;;;;;0.92;36.57;101317.17;1758016;80;21185;-83
2021/03/11 10:07:57;;;;;;;12.10;3.83;;;;;;;0.83;36.15;101306.83;1771588;80;21206;-82
2021/03/11 10:10:25;;;;;;;5.97;3.30;;;;;;;0.75;34.80;101314.34;1781144;79;21342;-82
2021/03/11 10:12:52;;;;;;;5.13;2.60;;;;;;;0.76;34.93;101303.75;1755549;80;21132;-82
2021/03/11 10:15:19;;;;;;;5.00;3.70;;;;;;;0.80;35.42;101314.06;1760545;79;21204;-83
2021/03/11 10:17:47;;;;;;;10.33;4.50;;;;;;;0.86;35.85;101314.48;1735299;80;21546;-82
2021/03/11 10:20:27;;;;;;;5.00;4.50;;;;;;;0.72;36.74;101321.13;1740657;80;21679;-81
2021/03/11 10:23:22;;;;;;;5.83;3.33;;;;;;;0.72;36.58;101304.90;1723417;79;23193;-82
2021/03/11 10:26:25;;;;;;;3.60;3.30;;;;;;;0.71;36.03;101304.52;1664115;84;21186;-82
2021/03/11 10:29:00;;;;;;;10.53;3.80;;;;;;;0.76;35.37;101300.30;1602943;88;21167;-82
2021/03/11 10:31:36;;;;;;;3.93;3.50;;;;;;;0.86;35.68;101304.45;1758498;79;23633;-82
2021/03/11 10:34:27;;;;;;;5.57;3.27;;;;;;;0.89;35.71;101299.02;1751481;79;21152;-80
2021/03/11 10:37:00;;;;;;;10.27;5.23;;;;;;;0.88;35.75;101289.45;1595991;88;22245;-81
2021/03/11 10:39:29;;;;;;;6.00;4.57;;;;;;;0.89;35.94;101286.72;1601280;88;21222;-81
2021/03/11 10:42:05;;;;;;;9.87;5.23;;;;;;;0.92;36.06;101281.28;1591866;88;21239;-80
2021/03/11 10:44:39;;;;;;;7.93;5.20;;;;;;;0.92;36.10;101289.16;1593180;87;21742;-81
2021/03/11 10:47:18;;;;;;;5.93;4.77;;;;;;;0.97;36.61;101290.98;1561278;90;21823;-81
2021/03/11 10:49:46;;;;;;;6.83;4.80;;;;;;;0.97;36.76;101287.04;1568444;90;21242;-82
2021/03/11 10:52:17;;;;;;;7.63;4.10;;;;;;;0.96;35.72;101288.00;1536471;90;22301;-84
2021/03/11 10:54:44;;;;;;;12.00;6.13;;;;;;;0.89;36.12;101276.22;1563869;90;21504;-82
2021/03/11 10:57:17;;;;;;;11.30;5.03;;;;;;;0.87;37.04;101274.17;1550521;90;21200;-81
2021/03/11 11:00:08;;;;;;;7.97;5.60;;;;;;;0.93;37.25;101276.86;1571187;90;21202;-82
2021/03/11 11:02:34;;;;;;;8.20;5.73;;;;;;;1.03;37.03;101277.08;1561075;90;21261;-81
2021/03/11 11:05:05;;;;;;;6.57;4.70;;;;;;;0.93;36.73;101272.45;1569815;90;21677;-81
2021/03/11 11:07:32;;;;;;;6.97;5.20;;;;;;;0.87;36.97;101270.72;1570998;90;21362;-80
2021/03/11 11:10:05;;;;;;;8.90;5.47;;;;;;;0.81;37.10;101271.97;1545130;90;21204;-81
2021/03/11 11:12:35;;;;;;;6.10;5.37;;;;;;;0.82;37.02;101253.12;1555412;90;21109;-81
2021/03/11 11:15:05;;;;;;;6.17;5.33;;;;;;;0.65;37.13;101217.02;1541907;91;21252;-81
2021/03/11 11:17:36;;;;;;;6.30;4.73;;;;;;;0.87;36.30;101257.11;1530916;91;21234;-80
2021/03/11 11:20:08;;;;;;;8.07;5.10;;;;;;;-0.84;36.33;100962.95;1548222;91;21297;-82
2021/03/11 11:22:35;;;;;;;6.00;5.30;;;;;;;0.90;36.70;101238.99;1539814;89;21135;-82
2021/03/11 11:25:10;;;;;;;7.93;5.20;;;;;;;0.96;36.77;101231.55;1575118;89;21201;-81
2021/03/11 11:27:40;;;;;;;6.37;4.57;;;;;;;0.97;35.96;101244.20;1560424;90;21239;-82
2021/03/11 11:30:11;;;;;;;5.93;5.10;;;;;;;0.96;36.60;101234.19;1502669;90;21244;-83
2021/03/11 11:32:41;;;;;;;8.00;5.83;;;;;;;0.96;36.94;101232.88;1556271;90;21200;-82
2021/03/11 11:35:10;;;;;;;6.07;4.57;;;;;;;0.93;37.15;101224.36;1586700;87;21300;-83
2021/03/11 11:37:37;;;;;;;5.87;5.23;;;;;;;0.95;37.54;101221.98;1614728;87;21181;-82
2021/03/11 11:40:07;;;;;;;6.30;4.47;;;;;;;1.02;37.16;101220.25;1609783;87;21192;-82
2021/03/11 11:42:34;;;;;;;7.27;4.43;;;;;;;1.05;37.04;101215.63;1610499;87;21336;-82